Time;durP1;ratioP1;P1;durP2;ratioP2;P2;SDS_P1;SDS_P2;PMS_P1;PMS_P2;Temp;Humidity;BMP_temperature;BMP_pressure;BME280_temperature;BME280_humidity;BME280_pressure;Samples;Min_cycle;Max_cycle;Signal;HPM_P1;HPM_P2
2022/11/13 00:00:36;;;;;;;1.13;0.88;;;;;;;13.86;42.64;101009.44;5006647;28;20050;-60
2022/11/13 00:03:03;;;;;;;1.02;0.90;;;;;;;13.87;42.61;101005.03;4991592;28;20058;-60
2022/11/13 00:05:29;;;;;;;1.25;0.73;;;;;;;13.88;42.12;101002.31;4991192;28;20096;-61
2022/11/13 00:07:55;;;;;;;0.90;0.70;;;;;;;13.90;42.21;101000.41;4991434;28;20514;-62
2022/11/13 00:10:22;;;;;;;1.10;0.80;;;;;;;13.91;42.10;100994.19;4991184;28;20081;-61
2022/11/13 00:12:48;;;;;;;0.82;0.77;;;;;;;13.95;42.09;101002.84;4991784;28;20085;-61
2022/11/13 00:15:15;;;;;;;1.65;1.00;;;;;;;13.98;42.23;101000.03;4991203;28;20054;-60
2022/11/13 00:17:41;;;;;;;0.82;0.70;;;;;;;13.99;41.77;100993.81;4991542;28;20061;-61
2022/11/13 00:20:08;;;;;;;1.52;0.80;;;;;;;14.03;41.66;100999.78;4990062;28;20105;-60
2022/11/13 00:22:34;;;;;;;0.80;0.60;;;;;;;14.04;41.66;100996.19;4991307;28;20092;-61
2022/11/13 00:25:01;;;;;;;1.40;0.68;;;;;;;14.06;41.44;100997.00;4989692;28;20384;-60
2022/11/13 00:27:30;;;;;;;0.70;0.60;;;;;;;14.06;41.16;100999.66;4990100;28;20108;-62
2022/11/13 00:29:56;;;;;;;1.15;0.70;;;;;;;14.07;41.41;100994.28;4991257;28;20346;-61
2022/11/13 00:32:22;;;;;;;0.60;0.60;;;;;;;14.09;41.35;100995.97;4990006;28;20479;-61
2022/11/13 00:34:49;;;;;;;0.82;0.65;;;;;;;14.11;41.16;100991.44;4991025;28;20062;-61
2022/11/13 00:37:15;;;;;;;0.82;0.70;;;;;;;14.11;41.04;100991.44;4989782;28;20141;-60
2022/11/13 00:39:42;;;;;;;0.85;0.70;;;;;;;14.09;41.08;100988.88;4993956;28;20132;-60
2022/11/13 00:42:08;;;;;;;0.68;0.68;;;;;;;14.10;41.04;100987.09;4995283;28;20124;-60
2022/11/13 00:44:35;;;;;;;1.15;1.05;;;;;;;14.07;40.93;100981.03;4995024;28;20054;-60
2022/11/13 00:47:01;;;;;;;0.93;0.82;;;;;;;14.07;40.81;100983.69;4994920;28;20061;-61
2022/11/13 00:49:28;;;;;;;1.30;0.90;;;;;;;14.07;41.01;100982.81;4995187;28;20093;-61
2022/11/13 00:51:54;;;;;;;2.15;0.98;;;;;;;14.06;40.87;100974.00;4994842;28;20061;-60
2022/11/13 00:54:21;;;;;;;1.13;0.90;;;;;;;14.06;40.57;100975.81;4993874;28;20068;-60
2022/11/13 00:56:47;;;;;;;0.82;0.80;;;;;;;14.05;40.70;100982.03;4993519;28;20070;-60
2022/11/13 00:59:13;;;;;;;1.27;0.98;;;;;;;14.04;40.67;100975.91;4995049;28;20057;-60
2022/11/13 01:01:40;;;;;;;1.05;0.95;;;;;;;14.03;40.86;100978.63;4994712;28;20053;-62
2022/11/13 01:04:06;;;;;;;1.02;0.77;;;;;;;14.01;40.97;100975.19;4994811;28;20054;-61
2022/11/13 01:06:33;;;;;;;1.33;0.93;;;;;;;13.98;40.72;100973.53;4994310;28;20081;-61
2022/11/13 01:08:59;;;;;;;1.05;0.80;;;;;;;13.97;40.63;100971.00;4994920;28;20058;-61
2022/11/13 01:11:28;;;;;;;1.17;0.98;;;;;;;13.92;40.55;100977.41;4994582;28;20381;-61
2022/11/13 01:13:55;;;;;;;0.60;0.60;;;;;;;13.89;40.50;100972.25;4994686;28;20149;-61
2022/11/13 01:16:26;;;;;;;1.00;0.90;;;;;;;13.84;40.31;100979.56;4994516;28;20058;-60
2022/11/13 01:18:54;;;;;;;1.02;0.90;;;;;;;13.83;40.37;100980.47;4994171;28;20082;-61
2022/11/13 01:21:23;;;;;;;1.13;0.90;;;;;;;13.79;40.35;100982.44;4994536;28;20557;-61
2022/11/13 01:23:50;;;;;;;1.85;0.95;;;;;;;13.78;40.45;100979.88;4994237;28;20081;-61
2022/11/13 01:26:26;;;;;;;1.77;1.25;;;;;;;13.74;40.27;100975.66;4994473;28;20097;-60
2022/11/13 01:28:54;;;;;;;1.20;0.90;;;;;;;13.73;40.13;100977.47;4994141;28;20050;-61
2022/11/13 01:31:23;;;;;;;0.70;0.70;;;;;;;13.70;40.32;100979.41;4994190;28;20121;-60
2022/11/13 01:33:51;;;;;;;1.15;0.90;;;;;;;13.67;40.63;100972.47;4994200;28;20157;-60
2022/11/13 01:36:26;;;;;;;1.35;0.93;;;;;;;13.60;40.82;100977.22;4994196;28;20101;-60
2022/11/13 01:38:53;;;;;;;1.77;1.30;;;;;;;13.59;41.03;100970.22;4994336;28;20046;-61
2022/11/13 01:41:30;;;;;;;1.42;1.15;;;;;;;13.52;41.06;100977.63;4992965;28;20089;-60
2022/11/13 01:43:58;;;;;;;5.28;1.63;;;;;;;13.51;41.04;100978.56;4994078;28;20133;-60
2022/11/13 01:46:30;;;;;;;2.10;1.52;;;;;;;13.46;41.15;100985.81;4993969;28;20134;-60
2022/11/13 01:49:08;;;;;;;2.55;1.60;;;;;;;13.40;41.45;100971.13;4993090;28;20499;-62
2022/11/13 01:51:49;;;;;;;3.45;2.28;;;;;;;13.35;41.81;100970.47;4992642;28;20121;-60
2022/11/13 01:54:20;;;;;;;2.30;1.83;;;;;;;13.34;41.83;100971.41;4993701;28;20065;-60
2022/11/13 01:56:47;;;;;;;4.22;2.30;;;;;;;13.30;42.03;100959.25;4993959;28;20054;-63
2022/11/13 01:59:27;;;;;;;2.33;1.40;;;;;;;13.22;41.62;100962.28;4992755;28;20054;-62
2022/11/13 02:01:55;;;;;;;2.20;1.23;;;;;;;13.23;41.61;100965.81;4992595;28;20050;-61
2022/11/13 02:04:22;;;;;;;2.03;1.45;;;;;;;13.19;42.10;100958.94;4993684;28;20101;-61
2022/11/13 02:06:53;;;;;;;2.33;1.35;;;;;;;13.14;41.86;100945.94;4993646;28;20097;-60
2022/11/13 02:09:34;;;;;;;1.50;1.10;;;;;;;13.10;41.80;100947.88;4993528;28;20490;-61
2022/11/13 02:12:04;;;;;;;2.15;1.30;;;;;;;13.08;42.09;100943.59;4993842;28;20050;-61
2022/11/13 02:14:31;;;;;;;1.85;1.42;;;;;;;13.06;42.38;100929.59;4993429;28;20054;-61
2022/11/13 02:17:01;;;;;;;1.40;1.30;;;;;;;13.02;42.01;100934.19;4993452;28;20405;-60
2022/11/13 02:19:34;;;;;;;1.55;1.13;;;;;;;12.99;41.50;100931.69;4993259;28;20061;-60
2022/11/13 02:22:27;;;;;;;3.58;1.13;;;;;;;12.96;41.59;100930.03;4993615;28;20050;-62
2022/11/13 02:24:57;;;;;;;1.30;1.20;;;;;;;13.01;41.34;100929.84;4992041;28;20059;-59
2022/11/13 02:27:29;;;;;;;1.35;1.00;;;;;;;12.99;41.03;100929.91;4992251;28;20392;-61
2022/11/13 02:29:56;;;;;;;2.08;1.20;;;;;;;13.01;41.23;100922.75;4993053;28;20138;-61
2022/11/13 02:32:22;;;;;;;1.05;0.95;;;;;;;13.03;41.03;100926.19;4992038;28;20153;-62
2022/11/13 02:34:49;;;;;;;1.67;1.20;;;;;;;13.06;41.04;100925.19;4992957;28;20054;-61
2022/11/13 02:37:15;;;;;;;2.10;1.30;;;;;;;13.08;40.81;100923.31;4991780;28;20484;-60
2022/11/13 02:39:41;;;;;;;1.15;0.90;;;;;;;13.11;41.08;100915.22;4993090;28;20466;-60
2022/11/13 02:42:08;;;;;;;1.58;0.95;;;;;;;13.14;40.92;100917.72;4991532;28;20047;-62
2022/11/13 02:44:34;;;;;;;1.30;1.15;;;;;;;13.16;40.84;100921.13;4992915;28;20054;-60
2022/11/13 02:47:01;;;;;;;2.53;1.65;;;;;;;13.19;40.77;100919.28;4992743;28;20169;-59
2022/11/13 02:49:27;;;;;;;2.80;2.22;;;;;;;13.19;41.11;100919.28;4992991;28;20050;-61
2022/11/13 02:51:53;;;;;;;7.45;3.10;;;;;;;13.20;41.17;100915.72;4991445;28;20054;-61
2022/11/13 02:54:20;;;;;;;4.47;3.58;;;;;;;13.18;41.77;100913.13;4992840;28;20062;-60
2022/11/13 02:56:46;;;;;;;4.50;3.38;;;;;;;13.15;41.85;100908.88;4992876;28;20385;-61
2022/11/13 02:59:13;;;;;;;4.57;3.20;;;;;;;13.13;41.97;100905.41;4992716;28;20062;-60
2022/11/13 03:01:39;;;;;;;4.20;3.47;;;;;;;13.10;42.20;100908.25;4992056;28;20109;-60
2022/11/13 03:04:06;;;;;;;4.88;3.20;;;;;;;13.07;42.36;100905.75;4992766;28;20138;-62
2022/11/13 03:06:32;;;;;;;4.88;3.10;;;;;;;13.03;42.55;100902.41;4992318;28;20050;-64
2022/11/13 03:08:59;;;;;;;5.78;2.75;;;;;;;13.00;42.70;100899.03;4993066;28;20050;-61
2022/11/13 03:11:25;;;;;;;4.13;2.60;;;;;;;12.96;42.50;100894.81;4990827;28;20054;-59
2022/11/13 03:13:52;;;;;;;3.03;2.42;;;;;;;12.92;42.55;100893.25;5007597;28;20054;-60
2022/11/13 03:16:18;;;;;;;2.42;2.22;;;;;;;12.88;42.29;100893.44;4990942;28;20058;-61
2022/11/13 03:18:45;;;;;;;4.30;2.35;;;;;;;12.87;42.21;100893.50;4990866;28;20105;-61
2022/11/13 03:21:13;;;;;;;3.13;2.30;;;;;;;12.85;42.30;100890.94;4992547;28;20058;-63
2022/11/13 03:23:41;;;;;;;4.32;2.53;;;;;;;12.84;42.32;100889.22;4991941;28;20058;-60
2022/11/13 03:26:10;;;;;;;3.92;2.00;;;;;;;12.83;42.36;100900.72;4990930;28;20491;-60
2022/11/13 03:28:37;;;;;;;3.78;2.42;;;;;;;12.83;42.39;100895.44;4991773;28;20487;-62
2022/11/13 03:31:04;;;;;;;2.13;1.92;;;;;;;12.82;42.37;100904.28;4992396;28;20054;-60
2022/11/13 03:33:30;;;;;;;5.60;2.45;;;;;;;12.81;42.82;100897.28;4991949;28;20047;-61
2022/11/13 03:35:57;;;;;;;3.55;2.10;;;;;;;12.79;42.68;100895.66;4992024;28;20062;-61
2022/11/13 03:38:24;;;;;;;2.55;2.00;;;;;;;12.77;42.81;100895.72;4991682;28;20092;-62
2022/11/13 03:40:51;;;;;;;2.47;2.00;;;;;;;12.73;42.54;100897.66;4990880;28;20046;-60
2022/11/13 03:43:18;;;;;;;3.10;2.00;;;;;;;12.71;42.59;100888.09;4990744;28;20054;-61
2022/11/13 03:45:45;;;;;;;3.35;2.28;;;;;;;12.68;42.65;100885.59;4991774;28;20479;-61
2022/11/13 03:48:13;;;;;;;3.35;2.05;;;;;;;12.66;42.50;100884.78;4991607;28;20046;-62
2022/11/13 03:50:45;;;;;;;2.65;2.25;;;;;;;12.62;42.36;100882.31;4991936;28;20066;-60
2022/11/13 03:53:12;;;;;;;3.37;2.27;;;;;;;12.63;42.38;100876.09;4991507;28;20454;-60
2022/11/13 03:55:40;;;;;;;2.50;1.67;;;;;;;12.62;42.30;100874.41;4991990;28;20062;-61
2022/11/13 03:58:07;;;;;;;2.60;1.85;;;;;;;12.63;42.18;100872.59;4991379;28;20057;-60
2022/11/13 04:00:34;;;;;;;2.35;1.90;;;;;;;12.63;42.24;100870.81;4991731;28;20054;-61
2022/11/13 04:06:09;;;;;;;2.45;1.90;;;;;;;12.69;41.93;100861.75;5008627;28;20064;-61
2022/11/13 04:08:36;;;;;;;3.28;2.08;;;;;;;12.71;41.66;100857.25;5010612;28;20062;-60
2022/11/13 04:11:07;;;;;;;2.85;1.80;;;;;;;12.72;41.08;100863.38;5010688;28;20422;-60
2022/11/13 04:13:34;;;;;;;2.28;2.00;;;;;;;12.78;41.40;100865.72;5010160;28;20054;-61
2022/11/13 04:16:01;;;;;;;2.95;2.40;;;;;;;12.80;41.15;100849.78;5010818;28;20053;-60
2022/11/13 04:18:27;;;;;;;2.15;1.95;;;;;;;12.83;41.46;100858.44;5010601;28;20152;-60
2022/11/13 04:21:02;;;;;;;2.40;1.58;;;;;;;12.84;40.97;100857.50;4993186;28;20442;-60
2022/11/13 04:23:30;;;;;;;3.22;1.90;;;;;;;12.89;41.20;100854.63;5011102;28;20136;-60
2022/11/13 04:25:57;;;;;;;3.45;1.88;;;;;;;12.89;41.09;100844.94;5010740;28;20050;-61
2022/11/13 04:28:23;;;;;;;2.88;1.88;;;;;;;12.92;41.07;100843.91;5010828;28;20108;-60
2022/11/13 04:30:53;;;;;;;2.10;1.48;;;;;;;12.89;40.86;100842.28;4993179;28;20602;-59
2022/11/13 04:33:19;;;;;;;2.92;1.77;;;;;;;12.89;41.10;100844.94;5010747;28;20052;-61
2022/11/13 04:35:47;;;;;;;2.60;1.63;;;;;;;12.85;41.28;100837.22;5010654;28;20092;-60
2022/11/13 04:38:14;;;;;;;2.55;2.17;;;;;;;12.81;40.91;100844.44;5010500;28;20108;-60
2022/11/13 04:40:41;;;;;;;2.53;2.00;;;;;;;12.77;40.90;100845.53;5010348;28;20052;-59
2022/11/13 04:43:07;;;;;;;2.90;2.13;;;;;;;12.71;41.05;100838.75;5010807;28;20054;-60
2022/11/13 04:45:35;;;;;;;2.92;2.15;;;;;;;12.67;40.98;100833.69;5010499;28;20094;-60
2022/11/13 04:48:04;;;;;;;5.45;2.75;;;;;;;12.59;40.97;100834.03;5010388;28;20057;-62
2022/11/13 04:50:31;;;;;;;3.00;2.10;;;;;;;12.56;41.09;100831.59;5010746;28;20510;-61
2022/11/13 04:52:57;;;;;;;3.05;2.40;;;;;;;12.53;41.19;100822.03;5010519;28;20590;-60
2022/11/13 04:55:24;;;;;;;3.17;2.42;;;;;;;12.54;41.66;100828.13;5010514;28;20050;-61
2022/11/13 04:57:54;;;;;;;3.65;2.80;;;;;;;12.55;41.83;100822.78;5010415;28;20046;-59
2022/11/13 05:00:21;;;;;;;4.68;2.97;;;;;;;12.58;41.85;100835.00;5010481;28;20050;-61
2022/11/13 05:02:48;;;;;;;3.75;3.08;;;;;;;12.60;41.82;100825.22;5010151;28;20046;-60
2022/11/13 05:05:14;;;;;;;3.28;2.50;;;;;;;12.61;41.81;100813.72;5010531;28;20049;-61
2022/11/13 05:07:41;;;;;;;3.35;2.65;;;;;;;12.63;41.89;100814.47;5010351;28;20145;-60
2022/11/13 05:10:08;;;;;;;3.30;2.70;;;;;;;12.65;41.87;100812.63;5010518;28;20057;-60
2022/11/13 05:12:35;;;;;;;3.63;2.90;;;;;;;12.67;42.20;100810.75;5010104;28;20141;-60
2022/11/13 05:15:02;;;;;;;2.65;2.40;;;;;;;12.67;41.92;100802.00;5010301;28;20060;-60
2022/11/13 05:17:29;;;;;;;3.45;2.53;;;;;;;12.67;41.95;100807.28;5010420;28;20092;-61
2022/11/13 05:19:55;;;;;;;4.28;2.88;;;;;;;12.66;41.94;100800.28;5010501;28;20049;-61
2022/11/13 05:22:22;;;;;;;3.47;2.88;;;;;;;12.64;41.97;100805.66;5010077;28;20060;-60
2022/11/13 05:24:48;;;;;;;6.22;2.83;;;;;;;12.61;42.06;100806.66;5012447;28;20388;-60
2022/11/13 05:27:15;;;;;;;3.67;2.80;;;;;;;12.60;42.14;100804.94;5013993;28;20145;-62
2022/11/13 05:29:43;;;;;;;4.82;3.17;;;;;;;12.58;42.21;100805.94;5013770;28;20046;-59
2022/11/13 05:32:10;;;;;;;3.03;2.70;;;;;;;12.55;42.24;100803.44;5013749;28;20050;-61
2022/11/13 05:34:36;;;;;;;3.92;2.95;;;;;;;12.49;42.42;100796.69;5013595;28;20050;-61
2022/11/13 05:37:03;;;;;;;5.32;2.92;;;;;;;12.45;42.54;100795.97;5013585;28;20093;-61
2022/11/13 05:39:29;;;;;;;5.32;3.40;;;;;;;12.41;42.54;100797.03;5013821;28;20052;-60
2022/11/13 05:41:56;;;;;;;9.88;3.55;;;;;;;12.40;42.84;100789.22;5013663;28;20068;-60
2022/11/13 05:44:22;;;;;;;5.80;3.83;;;;;;;12.37;42.95;100796.34;5013843;28;20050;-61
2022/11/13 05:46:49;;;;;;;6.88;3.53;;;;;;;12.35;42.92;100792.94;5013695;28;20056;-60
2022/11/13 05:49:15;;;;;;;6.35;3.28;;;;;;;12.33;43.12;100789.50;5013669;28;20053;-61
2022/11/13 05:51:42;;;;;;;5.45;3.40;;;;;;;12.30;43.12;100781.72;5013700;28;20049;-60
2022/11/13 05:54:10;;;;;;;3.78;3.13;;;;;;;12.30;43.40;100786.16;5013547;28;20152;-60
2022/11/13 05:56:36;;;;;;;3.65;3.05;;;;;;;12.27;43.36;100776.59;5012997;28;20050;-61
2022/11/13 05:59:03;;;;;;;3.70;2.85;;;;;;;12.25;43.49;100781.94;5013405;28;20058;-61
2022/11/13 06:01:33;;;;;;;4.90;3.10;;;;;;;12.24;43.41;100779.38;5013467;28;20060;-60
2022/11/13 06:04:01;;;;;;;3.08;2.58;;;;;;;12.23;43.45;100780.31;5013368;28;20056;-60
2022/11/13 06:06:29;;;;;;;3.28;2.65;;;;;;;12.21;43.46;100780.38;5013046;28;20581;-60
2022/11/13 06:08:57;;;;;;;4.45;2.67;;;;;;;12.23;43.41;100775.03;5012922;28;20046;-62
2022/11/13 06:11:25;;;;;;;3.63;2.58;;;;;;;12.22;43.16;100770.66;5013199;28;20050;-61
2022/11/13 06:13:53;;;;;;;4.72;2.53;;;;;;;12.25;43.26;100773.16;5012876;28;20136;-61
2022/11/13 06:16:26;;;;;;;3.22;2.40;;;;;;;12.24;42.99;100774.09;5012986;28;20053;-60
2022/11/13 06:18:57;;;;;;;3.10;2.10;;;;;;;12.26;42.61;100772.22;5012735;28;20052;-61
2022/11/13 06:21:27;;;;;;;2.85;1.85;;;;;;;12.30;42.75;100765.03;5012822;28;20054;-61
2022/11/13 06:23:56;;;;;;;4.85;2.30;;;;;;;12.34;42.67;100767.44;5012749;28;20512;-62
2022/11/13 06:26:24;;;;;;;2.72;2.30;;;;;;;12.37;42.61;100758.50;5012575;28;20060;-61
2022/11/13 06:28:51;;;;;;;2.30;1.98;;;;;;;12.42;42.49;100758.28;5012944;28;20157;-60
2022/11/13 06:31:21;;;;;;;2.42;1.92;;;;;;;12.42;42.40;100739.81;5012667;28;20585;-60
2022/11/13 06:33:48;;;;;;;2.30;1.70;;;;;;;12.43;42.04;100737.09;5013020;28;20069;-62
2022/11/13 06:36:18;;;;;;;2.75;2.30;;;;;;;12.43;41.75;100745.03;5011423;28;20502;-60
2022/11/13 06:38:46;;;;;;;2.53;1.75;;;;;;;12.45;41.54;100737.03;5012778;28;20050;-61
2022/11/13 06:41:15;;;;;;;1.95;1.63;;;;;;;12.45;41.11;100729.09;5012310;28;20068;-60
2022/11/13 06:43:42;;;;;;;1.90;1.55;;;;;;;12.49;41.13;100730.66;5012744;28;20149;-60
2022/11/13 06:46:12;;;;;;;4.25;1.83;;;;;;;12.52;40.63;100735.78;5012063;28;20058;-61
2022/11/13 06:48:39;;;;;;;1.70;1.60;;;;;;;12.58;40.72;100732.84;5012314;28;20518;-60
2022/11/13 06:51:08;;;;;;;1.77;1.35;;;;;;;12.62;40.90;100734.41;5012165;28;20061;-61
2022/11/13 06:53:35;;;;;;;2.80;1.75;;;;;;;12.70;40.60;100733.16;5012558;28;20100;-60
2022/11/13 06:56:05;;;;;;;2.50;1.63;;;;;;;12.73;40.30;100733.88;5012113;28;20060;-60
2022/11/13 06:58:32;;;;;;;1.95;1.75;;;;;;;12.79;40.81;100732.72;5011918;28;20056;-60
2022/11/13 07:01:13;;;;;;;5.35;2.85;;;;;;;12.78;40.29;100730.97;5011903;28;20144;-61
2022/11/13 07:03:40;;;;;;;3.92;2.20;;;;;;;12.83;40.34;100731.63;5012055;28;20069;-60
2022/11/13 07:06:12;;;;;;;3.25;2.33;;;;;;;12.85;39.71;100735.03;5011777;28;20089;-61
2022/11/13 07:08:42;;;;;;;3.30;1.55;;;;;;;12.84;39.33;100730.69;5012068;28;20587;-61
2022/11/13 07:11:12;;;;;;;2.92;1.52;;;;;;;12.85;39.98;100724.47;5011833;28;20600;-61
2022/11/13 07:13:39;;;;;;;1.80;1.38;;;;;;;12.85;39.52;100721.81;5011921;28;20144;-61
2022/11/13 07:16:08;;;;;;;1.90;1.10;;;;;;;12.84;39.60;100720.13;5011819;28;20050;-61
2022/11/13 07:18:42;;;;;;;1.27;1.08;;;;;;;12.84;39.55;100720.13;5011911;28;20107;-61
2022/11/13 07:21:10;;;;;;;1.23;1.02;;;;;;;12.82;39.21;100721.97;5011799;28;20153;-60
2022/11/13 07:23:42;;;;;;;2.13;1.23;;;;;;;12.82;39.44;100723.78;5011665;28;20121;-61
2022/11/13 07:26:10;;;;;;;1.17;0.95;;;;;;;12.81;39.35;100728.19;5011502;28;20092;-60
2022/11/13 07:28:37;;;;;;;2.03;1.50;;;;;;;12.80;40.01;100726.47;5011225;28;20153;-61
2022/11/13 07:31:04;;;;;;;1.70;1.40;;;;;;;12.77;40.17;100721.34;5012011;28;20156;-60
2022/11/13 07:33:31;;;;;;;4.93;2.30;;;;;;;12.70;40.47;100734.00;5011577;28;20041;-61
2022/11/13 07:35:58;;;;;;;3.75;2.55;;;;;;;12.64;40.81;100729.88;5011809;28;20042;-60
2022/11/13 07:38:25;;;;;;;4.40;2.88;;;;;;;12.56;41.21;100726.78;5011198;28;20084;-60
2022/11/13 07:40:52;;;;;;;6.00;3.20;;;;;;;12.48;41.59;100736.84;5011265;28;20061;-61
2022/11/13 07:43:19;;;;;;;3.22;2.88;;;;;;;12.36;41.87;100735.69;5011205;28;20149;-60
2022/11/13 07:45:46;;;;;;;4.07;3.17;;;;;;;12.25;42.41;100734.44;5011360;28;20042;-61
2022/11/13 07:48:12;;;;;;;5.05;3.47;;;;;;;12.14;42.80;100733.25;5011021;28;20149;-61
2022/11/13 07:50:39;;;;;;;4.97;3.83;;;;;;;12.02;42.98;100735.50;5011412;28;20422;-61
2022/11/13 07:53:07;;;;;;;5.57;3.60;;;;;;;11.91;43.83;100730.72;4993584;28;20050;-61
2022/11/13 07:55:34;;;;;;;8.98;4.20;;;;;;;11.80;44.20;100733.88;5010937;28;20490;-61
2022/11/13 07:58:03;;;;;;;6.72;4.57;;;;;;;11.71;44.32;100729.84;5010860;28;20133;-61
2022/11/13 08:00:32;;;;;;;5.28;4.25;;;;;;;11.62;44.70;100732.91;5011190;28;20145;-60
2022/11/13 08:03:07;;;;;;;5.45;4.15;;;;;;;11.53;45.59;100726.31;5010762;28;20053;-60
2022/11/13 08:05:35;;;;;;;5.35;3.90;;;;;;;11.50;45.04;100721.16;5011093;28;20152;-63
2022/11/13 08:08:02;;;;;;;6.05;4.15;;;;;;;11.44;45.49;100721.44;5010816;28;20052;-61
2022/11/13 08:10:29;;;;;;;5.00;3.92;;;;;;;11.41;45.48;100716.31;5010851;28;20042;-60
2022/11/13 08:12:59;;;;;;;5.40;4.00;;;;;;;11.36;45.98;100713.03;5011254;28;20136;-62
2022/11/13 08:15:26;;;;;;;4.38;3.72;;;;;;;11.33;45.94;100720.13;4993176;28;20143;-61
2022/11/13 08:17:57;;;;;;;4.97;4.00;;;;;;;11.31;46.17;100715.84;5010714;28;20551;-61
2022/11/13 08:20:25;;;;;;;4.72;4.00;;;;;;;11.29;46.40;100715.09;5010703;28;20477;-60
2022/11/13 08:22:52;;;;;;;5.60;4.40;;;;;;;11.28;46.37;100710.72;5011091;28;20046;-61
2022/11/13 08:25:18;;;;;;;6.07;4.10;;;;;;;11.26;46.61;100721.34;5008289;28;20104;-61
2022/11/13 08:27:45;;;;;;;5.53;4.03;;;;;;;11.25;46.64;100711.72;4992376;28;20410;-61
2022/11/13 08:30:13;;;;;;;5.07;4.03;;;;;;;11.24;46.80;100710.00;5005190;28;20050;-60
2022/11/13 08:32:40;;;;;;;5.22;4.07;;;;;;;11.25;46.86;100711.72;5008927;28;20054;-61
2022/11/13 08:35:07;;;;;;;4.05;3.53;;;;;;;11.26;46.91;100712.56;5010315;28;20053;-61
2022/11/13 08:37:33;;;;;;;5.80;3.90;;;;;;;11.27;47.04;100709.00;5010724;28;20063;-62
2022/11/13 08:40:00;;;;;;;5.32;4.10;;;;;;;11.30;47.07;100706.25;5010579;28;20056;-60
2022/11/13 08:42:26;;;;;;;5.25;3.38;;;;;;;11.32;47.06;100710.53;5010439;28;20050;-60
2022/11/13 08:44:53;;;;;;;4.28;3.38;;;;;;;11.37;47.09;100714.72;5010541;28;20064;-60
2022/11/13 08:47:20;;;;;;;5.90;3.67;;;;;;;11.42;47.10;100708.34;5010478;28;20422;-60
2022/11/13 08:49:52;;;;;;;4.30;3.08;;;;;;;11.49;47.13;100700.13;5010541;28;20112;-61
2022/11/13 08:52:18;;;;;;;3.67;2.78;;;;;;;11.57;47.18;100708.53;5010694;28;20477;-61
2022/11/13 08:54:45;;;;;;;4.45;2.92;;;;;;;11.66;47.38;100704.66;5010408;28;20057;-61
2022/11/13 08:57:12;;;;;;;4.40;3.50;;;;;;;11.74;47.28;100702.50;5010304;28;20498;-60
2022/11/13 08:59:38;;;;;;;4.15;3.25;;;;;;;11.83;47.42;100701.22;5012562;28;20124;-60
2022/11/13 09:02:05;;;;;;;5.43;3.92;;;;;;;11.90;47.32;100709.69;5014323;28;20052;-60
2022/11/13 09:04:31;;;;;;;3.95;3.10;;;;;;;11.97;47.36;100708.47;5014094;28;20132;-60
2022/11/13 09:06:58;;;;;;;7.45;3.63;;;;;;;12.03;47.39;100702.06;5013734;28;20050;-60
2022/11/13 09:09:25;;;;;;;4.65;3.50;;;;;;;12.08;47.19;100698.28;5014144;28;20582;-60
2022/11/13 09:11:51;;;;;;;4.03;3.15;;;;;;;12.15;47.11;100696.19;5014083;28;20132;-60
2022/11/13 09:14:18;;;;;;;4.88;3.33;;;;;;;12.22;46.77;100696.75;5014423;28;20133;-60
2022/11/13 09:16:44;;;;;;;3.85;3.08;;;;;;;12.28;46.76;100692.97;5013598;28;20050;-61
2022/11/13 09:19:11;;;;;;;37.97;14.85;;;;;;;12.35;47.11;100687.31;4996717;28;20054;-60
2022/11/13 09:21:37;;;;;;;11.27;6.45;;;;;;;12.44;46.72;100693.03;5013072;28;20046;-61
2022/11/13 09:24:05;;;;;;;6.88;3.58;;;;;;;12.52;46.38;100690.88;5011090;28;20654;-60
2022/11/13 09:26:33;;;;;;;3.72;2.70;;;;;;;12.60;46.37;100686.06;5001903;28;20125;-60
2022/11/13 09:29:00;;;;;;;3.97;2.70;;;;;;;12.70;46.18;100696.16;5013848;28;20064;-60
2022/11/13 09:31:26;;;;;;;3.95;2.63;;;;;;;12.77;46.13;100685.22;4996182;28;20054;-61
2022/11/13 09:33:53;;;;;;;2.65;2.42;;;;;;;12.88;46.05;100683.81;5014102;28;20054;-61
2022/11/13 09:36:20;;;;;;;2.60;2.30;;;;;;;12.97;45.90;100682.50;5013762;28;20054;-61
2022/11/13 09:38:46;;;;;;;3.13;2.65;;;;;;;13.06;45.88;100683.78;5013605;28;20105;-60
2022/11/13 09:41:18;;;;;;;4.45;3.33;;;;;;;13.14;46.37;100684.22;5013476;28;20137;-62
2022/11/13 09:43:51;;;;;;;3.83;3.22;;;;;;;13.23;46.50;100688.19;5013520;28;20073;-61
2022/11/13 09:46:39;;;;;;;3.15;2.80;;;;;;;13.32;46.46;100684.19;5013601;28;20104;-61
2022/11/13 09:49:14;;;;;;;2.65;2.22;;;;;;;13.36;45.93;100686.59;4996302;28;20046;-61
2022/11/13 09:51:50;;;;;;;3.28;2.38;;;;;;;13.45;45.74;100682.56;5013698;28;20049;-61
2022/11/13 09:54:16;;;;;;;3.17;2.45;;;;;;;13.55;45.49;100681.19;4996112;28;20054;-61
2022/11/13 09:56:58;;;;;;;3.03;2.35;;;;;;;13.60;45.36;100680.09;5012877;28;20121;-60
2022/11/13 09:59:38;;;;;;;2.47;2.13;;;;;;;13.70;45.10;100681.28;5013263;28;20145;-62
2022/11/13 10:02:21;;;;;;;2.50;2.10;;;;;;;13.83;45.09;100684.06;5013190;28;20052;-62
2022/11/13 10:05:06;;;;;;;3.88;1.85;;;;;;;13.93;44.49;100666.75;4871415;23;20049;-64
2022/11/13 10:08:02;;;;;;;2.17;1.95;;;;;;;14.03;44.42;100664.44;4991386;28;20041;-61
2022/11/13 10:10:48;;;;;;;4.13;2.50;;;;;;;14.20;44.74;100663.47;4992370;28;20093;-62
2022/11/13 10:13:27;;;;;;;2.88;2.22;;;;;;;14.31;44.94;100664.63;4982271;28;20042;-61
2022/11/13 10:16:02;;;;;;;4.50;2.17;;;;;;;14.43;45.11;100663.09;4974323;28;20054;-61
2022/11/13 10:18:34;;;;;;;3.17;2.42;;;;;;;14.55;45.13;100654.38;4977151;28;20373;-58
2022/11/13 10:21:22;;;;;;;3.38;2.67;;;;;;;14.62;45.31;100649.59;4993542;28;20051;-57
2022/11/13 10:23:55;;;;;;;2.45;2.25;;;;;;;14.75;44.99;100643.53;4991839;28;20487;-58
2022/11/13 10:26:26;;;;;;;3.03;2.10;;;;;;;14.88;45.03;100638.38;4988931;28;20066;-59
2022/11/13 10:29:01;;;;;;;2.70;2.20;;;;;;;14.97;44.70;100635.16;4984488;28;20069;-58
2022/11/13 10:31:28;;;;;;;2.13;1.85;;;;;;;15.11;44.65;100634.31;4992290;28;20109;-59
2022/11/13 10:33:56;;;;;;;2.60;2.10;;;;;;;15.22;44.67;100629.19;4992811;28;20062;-58
2022/11/13 10:36:53;;;;;;;3.28;1.90;;;;;;;15.31;44.16;100626.91;4992599;28;20050;-59
2022/11/13 10:39:20;;;;;;;2.38;1.80;;;;;;;15.49;44.39;100625.75;4974759;28;20332;-59
2022/11/13 10:41:52;;;;;;;3.22;2.17;;;;;;;15.61;44.52;100617.94;4975347;28;20058;-58
2022/11/13 10:44:22;;;;;;;2.20;1.97;;;;;;;15.75;44.13;100614.41;4992806;28;20054;-60
2022/11/13 10:46:49;;;;;;;2.25;1.77;;;;;;;15.93;44.19;100620.31;4992178;28;20050;-58
2022/11/13 10:49:27;;;;;;;2.03;1.70;;;;;;;16.10;44.02;100616.56;4993008;28;20061;-59
2022/11/13 10:51:56;;;;;;;2.00;1.40;;;;;;;16.31;44.17;100607.25;4992913;28;20558;-58
2022/11/13 10:54:26;;;;;;;2.70;1.90;;;;;;;16.49;44.22;100600.66;4992586;28;20414;-60
2022/11/13 10:57:02;;;;;;;2.28;2.08;;;;;;;16.68;44.39;100599.44;4975243;28;20046;-59
2022/11/13 10:59:40;;;;;;;2.75;1.98;;;;;;;16.92;44.45;100593.34;4992489;28;20137;-59
2022/11/13 11:02:19;;;;;;;3.38;2.22;;;;;;;17.21;44.44;100587.78;4992923;28;20138;-59
2022/11/13 11:04:46;;;;;;;3.85;2.45;;;;;;;17.59;45.10;100585.97;4992229;28;20056;-59
2022/11/13 11:07:20;;;;;;;3.38;2.67;;;;;;;18.03;45.13;100586.28;4992053;28;20052;-58
2022/11/13 11:09:49;;;;;;;3.42;2.53;;;;;;;18.61;44.98;100577.47;4991479;28;20774;-58
2022/11/13 11:12:24;;;;;;;2.45;2.13;;;;;;;19.28;43.94;100576.72;4992261;28;20054;-61
2022/11/13 11:14:57;;;;;;;2.65;2.20;;;;;;;20.02;44.27;100567.16;4992201;28;20049;-59
2022/11/13 11:17:49;;;;;;;2.22;2.03;;;;;;;20.82;41.92;100563.13;4991956;28;20050;-58
2022/11/13 11:20:24;;;;;;;2.40;2.00;;;;;;;21.57;42.32;100551.19;4992352;28;20054;-59
2022/11/13 11:22:58;;;;;;;2.70;1.98;;;;;;;22.34;39.77;100555.78;4992128;28;20046;-59
2022/11/13 11:25:40;;;;;;;1.73;1.63;;;;;;;23.10;38.83;100553.13;4992026;28;20069;-59
2022/11/13 11:28:45;;;;;;;1.55;1.45;;;;;;;23.85;38.33;100549.31;4974454;28;20061;-60
2022/11/13 11:31:36;;;;;;;1.60;1.50;;;;;;;24.59;37.71;100537.38;4974376;28;20050;-59
2022/11/13 11:34:43;;;;;;;1.95;1.60;;;;;;;25.22;37.44;100538.00;4992235;28;20057;-59
2022/11/13 11:37:16;;;;;;;1.75;1.60;;;;;;;25.72;34.23;100529.16;4931476;29;20110;-60